Time;durP1;ratioP1;P1;durP2;ratioP2;P2;SDS_P1;SDS_P2;PMS_P1;PMS_P2;Temp;Humidity;BMP_temperature;BMP_pressure;BME280_temperature;BME280_humidity;BME280_pressure;Samples;Min_cycle;Max_cycle;Signal;HPM_P1;HPM_P2
2021/03/31 00:01:40;;;;;;;;;;;19.70;37.40;;;;;;462816;257;1237;-45
2021/03/31 00:03:42;;;;;;;;;;;19.60;37.70;;;;;;462768;257;1118;-45
2021/03/31 00:05:43;;;;;;;;;;;19.50;37.90;;;;;;462805;257;1321;-45
2021/03/31 00:07:45;;;;;;;;;;;19.40;38.10;;;;;;462913;257;1205;-45
2021/03/31 00:09:46;;;;;;;;;;;19.30;38.20;;;;;;462971;257;1029;-45
2021/03/31 00:11:47;;;;;;;;;;;19.30;38.30;;;;;;462909;257;2143;-45
2021/03/31 00:13:49;;;;;;;;;;;19.30;38.40;;;;;;462986;257;1046;-45
2021/03/31 00:15:50;;;;;;;;;;;19.20;38.50;;;;;;462805;257;1225;-45
2021/03/31 00:17:51;;;;;;;;;;;19.20;38.50;;;;;;462963;257;1289;-45
2021/03/31 00:19:52;;;;;;;;;;;19.20;38.60;;;;;;463093;257;1033;-45
2021/03/31 00:21:54;;;;;;;;;;;19.10;38.70;;;;;;462866;257;1202;-45
2021/03/31 00:23:55;;;;;;;;;;;19.10;38.60;;;;;;462876;257;1159;-45
2021/03/31 00:25:56;;;;;;;;;;;19.10;38.80;;;;;;462779;257;1188;-45
2021/03/31 00:27:57;;;;;;;;;;;19.00;38.80;;;;;;462795;257;1244;-45
2021/03/31 00:29:59;;;;;;;;;;;19.00;38.90;;;;;;462851;257;1097;-45
2021/03/31 00:32:00;;;;;;;;;;;19.00;38.90;;;;;;462764;257;2199;-45
2021/03/31 00:34:01;;;;;;;;;;;19.00;38.90;;;;;;462830;257;2216;-45
2021/03/31 00:36:03;;;;;;;;;;;19.00;38.90;;;;;;462919;257;1494;-45
2021/03/31 00:38:04;;;;;;;;;;;19.00;38.90;;;;;;462990;257;1182;-45
2021/03/31 00:40:05;;;;;;;;;;;18.90;39.00;;;;;;462943;257;1088;-44
2021/03/31 00:42:06;;;;;;;;;;;18.90;39.00;;;;;;462875;257;1603;-45
2021/03/31 00:44:08;;;;;;;;;;;18.90;39.10;;;;;;462941;257;1061;-45
2021/03/31 00:46:09;;;;;;;;;;;18.90;39.10;;;;;;463086;254;1152;-45
2021/03/31 00:48:13;;;;;;;;;;;18.80;39.20;;;;;;462963;257;1074;-45
2021/03/31 00:50:13;;;;;;;;;;;18.90;39.10;;;;;;462860;257;1829;-45
2021/03/31 00:52:14;;;;;;;;;;;18.90;39.10;;;;;;462794;257;2187;-45
2021/03/31 00:54:15;;;;;;;;;;;18.90;39.10;;;;;;462827;257;1090;-45
2021/03/31 00:56:17;;;;;;;;;;;18.80;39.20;;;;;;462759;257;1159;-45
2021/03/31 00:58:18;;;;;;;;;;;18.80;39.20;;;;;;462950;257;1120;-45
2021/03/31 01:00:19;;;;;;;;;;;18.80;39.20;;;;;;462914;257;1149;-45
2021/03/31 01:02:20;;;;;;;;;;;18.80;39.30;;;;;;462921;257;1107;-45
2021/03/31 01:04:22;;;;;;;;;;;18.80;39.30;;;;;;463124;257;1053;-45
2021/03/31 01:06:23;;;;;;;;;;;18.80;39.30;;;;;;462956;257;1619;-45
2021/03/31 01:08:24;;;;;;;;;;;18.80;39.30;;;;;;462957;257;1122;-45
2021/03/31 01:10:26;;;;;;;;;;;18.70;39.30;;;;;;462975;257;1073;-45
2021/03/31 01:12:27;;;;;;;;;;;18.70;39.30;;;;;;462814;257;2147;-45
2021/03/31 01:14:28;;;;;;;;;;;18.70;39.30;;;;;;463230;257;1089;-45
2021/03/31 01:16:30;;;;;;;;;;;18.70;39.40;;;;;;462980;257;1108;-45
2021/03/31 01:18:31;;;;;;;;;;;18.70;39.40;;;;;;462791;257;1118;-45
2021/03/31 01:20:32;;;;;;;;;;;18.70;39.40;;;;;;462764;257;1088;-45
2021/03/31 01:22:33;;;;;;;;;;;18.60;39.50;;;;;;462800;257;1156;-45
2021/03/31 01:24:35;;;;;;;;;;;18.60;39.50;;;;;;462940;257;1122;-45
2021/03/31 01:26:36;;;;;;;;;;;18.60;39.50;;;;;;462765;257;1105;-45
2021/03/31 01:28:37;;;;;;;;;;;18.60;39.60;;;;;;463160;257;1045;-45
2021/03/31 01:30:39;;;;;;;;;;;18.50;39.60;;;;;;462812;257;1126;-45
2021/03/31 01:32:40;;;;;;;;;;;18.60;39.70;;;;;;463083;257;2151;-45
2021/03/31 01:34:41;;;;;;;;;;;18.50;39.70;;;;;;462918;257;1074;-45
2021/03/31 01:36:42;;;;;;;;;;;18.50;39.60;;;;;;462972;257;1179;-45
2021/03/31 01:38:44;;;;;;;;;;;18.60;39.60;;;;;;462901;257;1049;-45
2021/03/31 01:40:45;;;;;;;;;;;18.60;39.70;;;;;;462914;257;1047;-45
2021/03/31 01:42:46;;;;;;;;;;;18.50;39.70;;;;;;462840;257;1093;-45
2021/03/31 01:44:48;;;;;;;;;;;18.40;39.80;;;;;;462803;257;1096;-45
2021/03/31 01:46:49;;;;;;;;;;;18.40;39.80;;;;;;462795;257;1230;-45
2021/03/31 01:48:50;;;;;;;;;;;18.50;39.80;;;;;;462792;257;1124;-45
2021/03/31 01:50:51;;;;;;;;;;;18.50;39.80;;;;;;462783;257;1124;-45
2021/03/31 01:52:53;;;;;;;;;;;18.50;39.70;;;;;;462809;257;2278;-45
2021/03/31 01:54:54;;;;;;;;;;;18.40;39.70;;;;;;462913;257;1149;-45
2021/03/31 01:56:55;;;;;;;;;;;18.50;39.80;;;;;;462832;257;1231;-45
2021/03/31 01:58:57;;;;;;;;;;;18.50;39.70;;;;;;463082;257;1113;-45
2021/03/31 02:00:58;;;;;;;;;;;18.50;39.70;;;;;;462870;257;1285;-45
2021/03/31 02:02:59;;;;;;;;;;;18.50;39.80;;;;;;462760;257;1243;-45
2021/03/31 02:05:00;;;;;;;;;;;18.40;39.80;;;;;;462774;257;1135;-45
2021/03/31 02:07:02;;;;;;;;;;;18.40;39.80;;;;;;462907;257;1244;-45
2021/03/31 02:09:03;;;;;;;;;;;18.40;39.90;;;;;;462846;257;1090;-45
2021/03/31 02:11:06;;;;;;;;;;;18.40;39.90;;;;;;462903;257;1086;-45
2021/03/31 02:13:07;;;;;;;;;;;18.30;39.90;;;;;;463040;257;2168;-45
2021/03/31 02:15:08;;;;;;;;;;;18.40;40.00;;;;;;463027;257;1067;-45
2021/03/31 02:17:10;;;;;;;;;;;18.40;40.00;;;;;;462832;257;1097;-44
2021/03/31 02:19:11;;;;;;;;;;;18.30;39.90;;;;;;463131;257;1114;-45
2021/03/31 02:21:12;;;;;;;;;;;18.40;39.90;;;;;;463077;257;1077;-45
2021/03/31 02:23:13;;;;;;;;;;;18.40;39.90;;;;;;462954;257;1338;-45
2021/03/31 02:25:15;;;;;;;;;;;18.30;40.00;;;;;;462872;257;1017;-45
2021/03/31 02:27:16;;;;;;;;;;;18.30;40.00;;;;;;462866;257;1059;-45
2021/03/31 02:29:17;;;;;;;;;;;18.30;40.10;;;;;;463289;257;1082;-45
2021/03/31 02:31:19;;;;;;;;;;;18.30;40.10;;;;;;463112;257;1096;-45
2021/03/31 02:33:20;;;;;;;;;;;18.30;40.10;;;;;;462880;257;2211;-44
2021/03/31 02:35:21;;;;;;;;;;;18.30;40.10;;;;;;462911;257;1101;-45
2021/03/31 02:37:22;;;;;;;;;;;18.20;40.10;;;;;;463066;257;1263;-45
2021/03/31 02:39:24;;;;;;;;;;;18.20;40.10;;;;;;462829;257;1087;-45
2021/03/31 02:41:25;;;;;;;;;;;18.20;40.00;;;;;;462722;257;1613;-45
2021/03/31 02:43:26;;;;;;;;;;;18.20;40.10;;;;;;462894;257;1210;-45
2021/03/31 02:45:28;;;;;;;;;;;18.20;40.10;;;;;;463035;257;1104;-45
2021/03/31 02:47:29;;;;;;;;;;;18.20;40.10;;;;;;462809;257;1227;-45
2021/03/31 02:49:30;;;;;;;;;;;18.20;40.20;;;;;;463129;257;1094;-45
2021/03/31 02:51:31;;;;;;;;;;;18.20;40.20;;;;;;462843;257;1105;-45
2021/03/31 02:53:33;;;;;;;;;;;18.20;40.20;;;;;;463132;257;2190;-45
2021/03/31 02:55:34;;;;;;;;;;;18.20;40.10;;;;;;463049;257;1087;-45
2021/03/31 02:57:35;;;;;;;;;;;18.10;40.20;;;;;;463049;257;1278;-45
2021/03/31 02:59:36;;;;;;;;;;;18.20;40.20;;;;;;462898;257;1097;-45
2021/03/31 03:01:38;;;;;;;;;;;18.10;40.20;;;;;;462885;257;1272;-45
2021/03/31 03:03:39;;;;;;;;;;;18.10;40.20;;;;;;462933;257;1256;-45
2021/03/31 03:05:40;;;;;;;;;;;18.10;40.20;;;;;;462850;257;1094;-45
2021/03/31 03:07:42;;;;;;;;;;;18.10;40.30;;;;;;462892;257;1118;-45
2021/03/31 03:09:43;;;;;;;;;;;18.10;40.20;;;;;;462871;257;1171;-45
2021/03/31 03:11:45;;;;;;;;;;;18.10;40.30;;;;;;462813;257;1092;-45
2021/03/31 03:13:46;;;;;;;;;;;18.10;40.20;;;;;;463022;257;2156;-45
2021/03/31 03:15:47;;;;;;;;;;;18.10;40.30;;;;;;462887;257;1072;-45
2021/03/31 03:17:48;;;;;;;;;;;18.10;40.30;;;;;;462957;257;1055;-45
2021/03/31 03:19:50;;;;;;;;;;;18.10;40.30;;;;;;462990;257;1058;-45
2021/03/31 03:21:51;;;;;;;;;;;18.10;40.20;;;;;;462871;257;1080;-45
2021/03/31 03:23:52;;;;;;;;;;;18.10;40.30;;;;;;462953;257;1166;-45
2021/03/31 03:25:54;;;;;;;;;;;18.10;40.30;;;;;;462900;257;1083;-45
2021/03/31 03:27:55;;;;;;;;;;;18.10;40.30;;;;;;462847;257;1195;-45
2021/03/31 03:29:56;;;;;;;;;;;18.10;40.30;;;;;;462797;257;1055;-45
2021/03/31 03:31:57;;;;;;;;;;;18.00;40.30;;;;;;462792;257;1078;-45
2021/03/31 03:33:59;;;;;;;;;;;18.00;40.30;;;;;;462769;257;2203;-45
2021/03/31 03:36:00;;;;;;;;;;;18.10;40.30;;;;;;463041;257;996;-45
2021/03/31 03:38:02;;;;;;;;;;;18.10;40.20;;;;;;462825;257;1186;-45
2021/03/31 03:40:03;;;;;;;;;;;18.10;40.20;;;;;;462997;257;1062;-45
2021/03/31 03:42:04;;;;;;;;;;;18.00;40.30;;;;;;462846;257;1086;-45
2021/03/31 03:44:05;;;;;;;;;;;18.00;40.40;;;;;;462851;257;1129;-45
2021/03/31 03:46:07;;;;;;;;;;;18.00;40.40;;;;;;463054;257;1422;-45
2021/03/31 03:48:08;;;;;;;;;;;18.00;40.40;;;;;;462882;257;1284;-45
2021/03/31 03:50:09;;;;;;;;;;;18.00;40.30;;;;;;463046;257;1108;-45
2021/03/31 03:52:11;;;;;;;;;;;18.00;40.30;;;;;;462841;257;1129;-45
2021/03/31 03:54:12;;;;;;;;;;;18.10;40.30;;;;;;462870;257;2143;-45
2021/03/31 03:56:13;;;;;;;;;;;18.00;40.40;;;;;;462919;257;1113;-45
2021/03/31 03:58:14;;;;;;;;;;;18.00;40.40;;;;;;462920;257;1099;-45
2021/03/31 04:00:16;;;;;;;;;;;17.90;40.40;;;;;;462775;257;1093;-45
2021/03/31 04:02:17;;;;;;;;;;;17.90;40.50;;;;;;462744;257;1228;-45
2021/03/31 04:04:18;;;;;;;;;;;17.90;40.60;;;;;;462858;257;1255;-45
2021/03/31 04:06:19;;;;;;;;;;;17.90;40.50;;;;;;462959;254;1194;-45
2021/03/31 04:08:21;;;;;;;;;;;17.90;40.50;;;;;;462985;257;1220;-45
2021/03/31 04:10:22;;;;;;;;;;;17.90;40.50;;;;;;462806;257;1075;-45
2021/03/31 04:12:23;;;;;;;;;;;18.00;40.50;;;;;;462853;257;2145;-45
2021/03/31 04:14:25;;;;;;;;;;;18.00;40.30;;;;;;462883;257;1054;-45
2021/03/31 04:16:26;;;;;;;;;;;18.40;39.60;;;;;;463168;257;1280;-45
2021/03/31 04:18:27;;;;;;;;;;;18.90;38.80;;;;;;463275;257;1079;-45
2021/03/31 04:20:28;;;;;;;;;;;19.10;38.10;;;;;;462960;257;1073;-45
2021/03/31 04:22:30;;;;;;;;;;;19.30;37.70;;;;;;462734;257;1281;-45
2021/03/31 04:24:31;;;;;;;;;;;19.40;37.40;;;;;;462831;257;1211;-45
2021/03/31 04:26:32;;;;;;;;;;;19.60;37.20;;;;;;462752;257;1392;-45
2021/03/31 04:28:34;;;;;;;;;;;19.70;37.00;;;;;;462676;257;1235;-45
2021/03/31 04:30:35;;;;;;;;;;;19.70;36.80;;;;;;462622;257;1359;-45
2021/03/31 04:32:36;;;;;;;;;;;19.80;36.70;;;;;;462609;257;2206;-45
2021/03/31 04:34:37;;;;;;;;;;;19.90;36.60;;;;;;462627;257;1106;-45
2021/03/31 04:36:39;;;;;;;;;;;19.90;36.50;;;;;;462671;257;1177;-45
2021/03/31 04:38:40;;;;;;;;;;;20.00;36.40;;;;;;462756;257;1192;-45
2021/03/31 04:40:41;;;;;;;;;;;20.00;36.30;;;;;;462649;257;1099;-45
2021/03/31 04:42:42;;;;;;;;;;;20.00;36.30;;;;;;462667;257;1198;-45
2021/03/31 04:44:44;;;;;;;;;;;20.10;36.20;;;;;;462909;257;1168;-45
2021/03/31 04:46:45;;;;;;;;;;;20.10;36.10;;;;;;462595;257;1311;-45
2021/03/31 04:48:46;;;;;;;;;;;20.20;36.10;;;;;;462619;257;1084;-45
2021/03/31 04:50:48;;;;;;;;;;;20.20;36.00;;;;;;462543;257;1108;-45
2021/03/31 04:52:49;;;;;;;;;;;20.20;36.10;;;;;;462670;257;2204;-45
2021/03/31 04:54:50;;;;;;;;;;;20.20;36.00;;;;;;462709;257;1187;-45
2021/03/31 05:02:07;;;;;;;;;;;20.40;35.80;;;;;;462613;257;2347;-45
2021/03/31 05:04:09;;;;;;;;;;;20.40;35.80;;;;;;462626;257;1190;-45
2021/03/31 05:06:10;;;;;;;;;;;20.40;35.80;;;;;;462690;257;1126;-45
2021/03/31 05:08:11;;;;;;;;;;;20.40;35.70;;;;;;462675;257;1177;-45
2021/03/31 05:10:13;;;;;;;;;;;20.50;35.70;;;;;;462647;257;1196;-45
2021/03/31 05:12:14;;;;;;;;;;;20.50;35.70;;;;;;462654;257;1137;-45
2021/03/31 05:14:15;;;;;;;;;;;20.50;35.60;;;;;;462623;257;2203;-45
2021/03/31 05:16:17;;;;;;;;;;;20.50;35.60;;;;;;462636;257;1289;-45
2021/03/31 05:18:18;;;;;;;;;;;20.60;35.60;;;;;;462565;257;1322;-45
2021/03/31 05:20:19;;;;;;;;;;;20.60;35.50;;;;;;462529;257;1164;-45
2021/03/31 05:22:20;;;;;;;;;;;20.60;35.50;;;;;;462497;257;1252;-45
2021/03/31 05:24:22;;;;;;;;;;;20.60;35.40;;;;;;462606;257;1126;-45
2021/03/31 05:26:23;;;;;;;;;;;20.70;35.40;;;;;;462663;257;1333;-45
2021/03/31 05:28:24;;;;;;;;;;;20.70;35.40;;;;;;462608;257;1232;-45
2021/03/31 05:30:25;;;;;;;;;;;20.70;35.40;;;;;;462693;257;1193;-45
2021/03/31 05:32:27;;;;;;;;;;;20.70;35.30;;;;;;462632;257;1263;-45
2021/03/31 05:34:28;;;;;;;;;;;20.70;35.40;;;;;;462690;257;2152;-45
2021/03/31 05:36:30;;;;;;;;;;;20.80;35.30;;;;;;462649;257;1354;-45
2021/03/31 05:38:31;;;;;;;;;;;20.80;35.30;;;;;;462611;257;1096;-45
2021/03/31 05:40:32;;;;;;;;;;;20.80;35.20;;;;;;462546;257;1102;-45
2021/03/31 05:42:34;;;;;;;;;;;20.80;35.30;;;;;;462518;257;1236;-45
2021/03/31 05:44:35;;;;;;;;;;;20.90;35.20;;;;;;462563;257;1162;-45
2021/03/31 05:46:36;;;;;;;;;;;20.90;35.20;;;;;;462486;257;1388;-45
2021/03/31 05:48:37;;;;;;;;;;;20.90;35.20;;;;;;462488;257;1089;-45
2021/03/31 05:50:39;;;;;;;;;;;20.90;35.10;;;;;;462523;257;1098;-45
2021/03/31 05:52:40;;;;;;;;;;;20.90;35.20;;;;;;462446;257;1146;-46
2021/03/31 05:54:41;;;;;;;;;;;20.90;35.10;;;;;;462524;257;2214;-45
2021/03/31 05:56:42;;;;;;;;;;;21.00;35.10;;;;;;462511;254;1203;-45
2021/03/31 05:58:44;;;;;;;;;;;21.00;35.00;;;;;;462494;257;1097;-45
2021/03/31 06:00:45;;;;;;;;;;;21.00;35.00;;;;;;462517;257;1108;-45
2021/03/31 06:02:47;;;;;;;;;;;21.00;35.00;;;;;;462387;257;1163;-45
2021/03/31 06:04:48;;;;;;;;;;;21.00;35.00;;;;;;462241;257;1097;-45
2021/03/31 06:06:49;;;;;;;;;;;21.10;35.00;;;;;;462192;257;1361;-45
2021/03/31 06:08:51;;;;;;;;;;;21.10;35.00;;;;;;462392;257;1140;-45
2021/03/31 06:10:52;;;;;;;;;;;21.10;34.90;;;;;;462339;257;1230;-45
2021/03/31 06:12:54;;;;;;;;;;;21.10;34.80;;;;;;462182;257;1314;-45
2021/03/31 06:14:54;;;;;;;;;;;21.10;34.80;;;;;;462241;257;2493;-45
2021/03/31 06:16:56;;;;;;;;;;;21.20;34.80;;;;;;462267;257;1174;-45
2021/03/31 06:18:57;;;;;;;;;;;21.10;34.80;;;;;;462185;257;1086;-45
2021/03/31 06:20:59;;;;;;;;;;;21.20;34.80;;;;;;462263;257;1159;-45
2021/03/31 06:23:10;;;;;;;;;;;21.20;34.80;;;;;;462270;257;1157;-45
2021/03/31 06:25:08;;;;;;;;;;;21.20;34.80;;;;;;462042;258;2121;-45
2021/03/31 06:27:08;;;;;;;;;;;21.20;34.80;;;;;;462244;257;2224;-45
2021/03/31 06:29:10;;;;;;;;;;;21.20;34.70;;;;;;462100;257;1120;-45
2021/03/31 06:31:11;;;;;;;;;;;21.30;34.80;;;;;;462126;257;1230;-45
2021/03/31 06:33:12;;;;;;;;;;;21.20;34.70;;;;;;462359;257;2195;-45
2021/03/31 06:35:14;;;;;;;;;;;21.20;34.70;;;;;;462437;257;1200;-45
2021/03/31 06:37:15;;;;;;;;;;;21.20;34.70;;;;;;462321;257;1175;-45
2021/03/31 06:39:17;;;;;;;;;;;21.30;34.70;;;;;;462266;257;1268;-45
2021/03/31 06:41:25;;;;;;;;;;;21.30;34.70;;;;;;462175;257;1378;-45
2021/03/31 06:43:25;;;;;;;;;;;21.30;34.70;;;;;;461893;258;2324;-45
2021/03/31 06:45:23;;;;;;;;;;;21.30;34.80;;;;;;461777;258;2463;-45
2021/03/31 06:47:26;;;;;;;;;;;21.40;34.60;;;;;;462164;257;1370;-45
2021/03/31 06:49:26;;;;;;;;;;;20.90;35.10;;;;;;462070;258;1969;-45
2021/03/31 06:51:27;;;;;;;;;;;20.60;36.00;;;;;;462135;257;1327;-45
2021/03/31 06:53:28;;;;;;;;;;;20.20;36.60;;;;;;462294;257;2219;-45
2021/03/31 06:55:29;;;;;;;;;;;19.90;37.10;;;;;;462236;257;1121;-45
2021/03/31 06:57:31;;;;;;;;;;;19.80;37.50;;;;;;462230;257;1141;-44
2021/03/31 06:59:32;;;;;;;;;;;19.70;37.70;;;;;;462074;257;1126;-45
2021/03/31 07:01:33;;;;;;;;;;;19.60;38.00;;;;;;462003;257;1135;-45
2021/03/31 07:03:35;;;;;;;;;;;19.40;38.10;;;;;;462289;257;1079;-45
2021/03/31 07:05:36;;;;;;;;;;;19.40;38.30;;;;;;462253;257;1209;-45
2021/03/31 07:07:37;;;;;;;;;;;19.30;38.50;;;;;;462297;257;1160;-45
2021/03/31 07:09:39;;;;;;;;;;;19.30;38.50;;;;;;462237;257;1106;-45
2021/03/31 07:11:41;;;;;;;;;;;19.20;38.70;;;;;;462159;257;1212;-45
2021/03/31 07:13:42;;;;;;;;;;;19.20;38.80;;;;;;462139;257;2219;-45
2021/03/31 07:15:44;;;;;;;;;;;19.10;38.80;;;;;;462003;257;1275;-45
2021/03/31 07:17:49;;;;;;;;;;;19.10;39.00;;;;;;462027;257;1251;-45
2021/03/31 07:19:47;;;;;;;;;;;19.00;39.00;;;;;;461745;257;1358;-45
2021/03/31 07:21:48;;;;;;;;;;;19.10;39.00;;;;;;461965;257;1313;-45
2021/03/31 07:23:50;;;;;;;;;;;19.00;39.00;;;;;;461942;257;1163;-45
2021/03/31 07:25:51;;;;;;;;;;;19.00;39.10;;;;;;462019;257;1217;-45
2021/03/31 07:27:52;;;;;;;;;;;19.00;39.00;;;;;;462059;257;1135;-45
2021/03/31 07:30:06;;;;;;;;;;;18.90;39.00;;;;;;461989;257;1403;-45
2021/03/31 07:32:07;;;;;;;;;;;19.00;39.10;;;;;;462702;257;1311;-45
2021/03/31 07:34:09;;;;;;;;;;;19.00;39.10;;;;;;462860;257;2195;-45
2021/03/31 07:36:10;;;;;;;;;;;19.00;39.10;;;;;;462876;257;1123;-45
2021/03/31 07:38:11;;;;;;;;;;;18.90;39.20;;;;;;462879;257;1035;-45
2021/03/31 07:40:13;;;;;;;;;;;18.90;39.10;;;;;;462868;257;1001;-45
2021/03/31 07:42:14;;;;;;;;;;;18.90;39.10;;;;;;462515;257;1166;-45
2021/03/31 07:44:15;;;;;;;;;;;18.90;39.10;;;;;;462398;257;1155;-45
2021/03/31 07:46:17;;;;;;;;;;;18.90;39.00;;;;;;461945;257;1395;-45
2021/03/31 07:48:18;;;;;;;;;;;18.90;39.10;;;;;;461961;257;1201;-45
2021/03/31 07:50:20;;;;;;;;;;;18.80;39.30;;;;;;461980;257;1209;-45
2021/03/31 07:52:21;;;;;;;;;;;18.80;39.30;;;;;;462258;257;1341;-45
2021/03/31 07:54:22;;;;;;;;;;;18.80;39.30;;;;;;462464;257;2206;-45
2021/03/31 07:56:25;;;;;;;;;;;18.70;39.30;;;;;;462651;257;1189;-45
2021/03/31 07:58:25;;;;;;;;;;;18.70;39.50;;;;;;462411;257;1833;-45
2021/03/31 08:00:27;;;;;;;;;;;18.80;39.40;;;;;;462822;257;930;-45
2021/03/31 08:02:28;;;;;;;;;;;18.70;39.30;;;;;;462550;257;1062;-45
2021/03/31 08:04:29;;;;;;;;;;;18.80;39.40;;;;;;462480;257;1466;-45
2021/03/31 08:06:30;;;;;;;;;;;18.80;39.40;;;;;;462788;253;1191;-45
2021/03/31 08:08:32;;;;;;;;;;;18.80;39.40;;;;;;462514;257;980;-45
2021/03/31 08:10:36;;;;;;;;;;;18.70;39.40;;;;;;462452;257;975;-45
2021/03/31 08:12:34;;;;;;;;;;;18.70;39.40;;;;;;462348;257;2102;-45
2021/03/31 08:14:36;;;;;;;;;;;18.70;39.40;;;;;;462817;257;2203;-45
2021/03/31 08:16:38;;;;;;;;;;;18.70;39.40;;;;;;462309;257;1329;-45
2021/03/31 08:18:38;;;;;;;;;;;18.70;39.40;;;;;;462369;257;898;-45
2021/03/31 08:20:40;;;;;;;;;;;18.70;39.40;;;;;;462873;257;909;-45
2021/03/31 08:22:41;;;;;;;;;;;18.70;39.50;;;;;;462383;257;1372;-45
2021/03/31 08:24:42;;;;;;;;;;;18.70;39.50;;;;;;462756;257;891;-45
2021/03/31 08:26:44;;;;;;;;;;;18.60;39.40;;;;;;462679;257;1323;-45
2021/03/31 08:28:45;;;;;;;;;;;18.60;39.40;;;;;;462696;257;2115;-45
2021/03/31 08:30:46;;;;;;;;;;;18.70;39.50;;;;;;462680;257;923;-45
2021/03/31 08:32:47;;;;;;;;;;;18.60;39.40;;;;;;462830;257;1059;-45
2021/03/31 08:34:48;;;;;;;;;;;18.60;39.40;;;;;;462805;257;2199;-45
2021/03/31 08:36:50;;;;;;;;;;;18.60;39.40;;;;;;462733;257;1172;-45
2021/03/31 08:38:51;;;;;;;;;;;18.60;39.50;;;;;;462452;257;906;-45
2021/03/31 08:40:52;;;;;;;;;;;18.60;39.50;;;;;;462631;257;1349;-45
2021/03/31 08:42:57;;;;;;;;;;;18.60;39.50;;;;;;462116;257;1293;-45
2021/03/31 08:44:58;;;;;;;;;;;18.60;39.50;;;;;;461796;258;2266;-45
2021/03/31 08:46:57;;;;;;;;;;;18.60;39.60;;;;;;462642;257;2126;-45
2021/03/31 08:48:59;;;;;;;;;;;18.60;39.50;;;;;;462853;257;953;-45
2021/03/31 08:51:00;;;;;;;;;;;18.60;39.60;;;;;;462475;257;1235;-45
2021/03/31 08:53:01;;;;;;;;;;;18.60;39.60;;;;;;462801;257;990;-45
2021/03/31 08:55:02;;;;;;;;;;;18.60;39.50;;;;;;462395;258;2194;-45
2021/03/31 08:57:04;;;;;;;;;;;18.60;39.50;;;;;;462773;257;1118;-45
2021/03/31 08:59:05;;;;;;;;;;;18.60;39.50;;;;;;462451;257;1088;-45
2021/03/31 09:01:06;;;;;;;;;;;18.60;39.60;;;;;;462772;257;1065;-45
2021/03/31 09:03:07;;;;;;;;;;;18.50;39.60;;;;;;462838;257;1041;-45
2021/03/31 09:05:09;;;;;;;;;;;18.60;39.60;;;;;;462458;257;962;-45
2021/03/31 09:07:10;;;;;;;;;;;18.60;39.50;;;;;;462854;257;896;-45
2021/03/31 09:09:11;;;;;;;;;;;18.60;39.40;;;;;;462375;257;890;-45
2021/03/31 09:11:17;;;;;;;;;;;18.50;39.50;;;;;;462316;257;887;-45
2021/03/31 09:13:14;;;;;;;;;;;18.50;39.50;;;;;;462214;256;2015;-45
2021/03/31 09:15:15;;;;;;;;;;;18.50;39.50;;;;;;462907;257;2203;-44
2021/03/31 09:17:16;;;;;;;;;;;18.50;39.60;;;;;;462457;257;977;-45
2021/03/31 09:19:18;;;;;;;;;;;18.50;39.70;;;;;;462461;257;958;-45
2021/03/31 09:21:19;;;;;;;;;;;18.50;39.60;;;;;;462781;257;1250;-45
2021/03/31 09:23:20;;;;;;;;;;;18.50;39.50;;;;;;462449;257;1045;-45
2021/03/31 09:25:22;;;;;;;;;;;18.60;39.60;;;;;;462604;257;1140;-45
2021/03/31 09:27:23;;;;;;;;;;;18.60;39.50;;;;;;462250;257;1294;-45
2021/03/31 09:29:24;;;;;;;;;;;18.50;39.50;;;;;;462377;257;1092;-45
2021/03/31 09:31:28;;;;;;;;;;;18.50;39.50;;;;;;462137;257;1241;-45
2021/03/31 09:33:30;;;;;;;;;;;18.50;39.60;;;;;;462016;257;1926;-45
2021/03/31 09:35:28;;;;;;;;;;;18.50;39.60;;;;;;461956;257;2344;-45
2021/03/31 09:37:30;;;;;;;;;;;18.50;39.50;;;;;;462042;257;1661;-45
2021/03/31 09:39:31;;;;;;;;;;;18.50;39.50;;;;;;462195;257;1092;-45
2021/03/31 09:41:32;;;;;;;;;;;18.50;39.50;;;;;;462159;257;1411;-45
2021/03/31 09:43:34;;;;;;;;;;;18.50;39.50;;;;;;462294;257;1212;-45
2021/03/31 09:45:35;;;;;;;;;;;18.50;39.50;;;;;;462183;257;1118;-45
2021/03/31 09:47:38;;;;;;;;;;;18.50;39.60;;;;;;462173;257;1233;-45
2021/03/31 09:49:38;;;;;;;;;;;18.50;39.60;;;;;;462061;257;1504;-45
2021/03/31 09:51:39;;;;;;;;;;;18.50;39.60;;;;;;462079;257;1208;-45
2021/03/31 09:53:41;;;;;;;;;;;18.50;39.60;;;;;;462170;257;1164;-45
2021/03/31 09:55:42;;;;;;;;;;;18.50;39.60;;;;;;461970;257;2198;-45
2021/03/31 09:57:44;;;;;;;;;;;18.50;39.60;;;;;;462119;257;1346;-45
2021/03/31 09:59:45;;;;;;;;;;;18.50;39.40;;;;;;462093;257;1260;-45
2021/03/31 10:01:46;;;;;;;;;;;18.50;39.50;;;;;;462125;257;1147;-45
2021/03/31 10:03:47;;;;;;;;;;;18.40;39.60;;;;;;462163;257;1148;-45
2021/03/31 10:05:48;;;;;;;;;;;18.40;39.70;;;;;;462108;257;1166;-45
2021/03/31 10:07:50;;;;;;;;;;;18.40;39.80;;;;;;462094;257;1176;-45
2021/03/31 10:09:51;;;;;;;;;;;18.40;39.70;;;;;;461957;257;1478;-45
2021/03/31 10:11:52;;;;;;;;;;;18.40;39.80;;;;;;461959;257;1096;-45
2021/03/31 10:13:54;;;;;;;;;;;18.40;39.80;;;;;;462024;257;1271;-45
2021/03/31 10:15:55;;;;;;;;;;;18.40;39.70;;;;;;462133;257;2159;-45
2021/03/31 10:17:57;;;;;;;;;;;18.30;39.80;;;;;;462182;257;1120;-45
2021/03/31 10:19:58;;;;;;;;;;;18.30;39.90;;;;;;462075;257;1143;-45
2021/03/31 10:21:59;;;;;;;;;;;18.30;39.80;;;;;;462141;257;1167;-45
2021/03/31 10:24:01;;;;;;;;;;;18.30;39.80;;;;;;462252;257;1167;-45
2021/03/31 10:26:02;;;;;;;;;;;18.40;39.80;;;;;;462198;257;1337;-45
2021/03/31 10:28:03;;;;;;;;;;;18.40;39.60;;;;;;462613;257;1176;-45
2021/03/31 10:30:04;;;;;;;;;;;18.40;39.70;;;;;;462255;257;1130;-45
2021/03/31 10:32:05;;;;;;;;;;;18.40;39.50;;;;;;462037;257;1203;-45
2021/03/31 10:34:07;;;;;;;;;;;18.40;39.60;;;;;;462083;257;1127;-45
2021/03/31 10:36:08;;;;;;;;;;;18.40;39.60;;;;;;462197;254;2156;-45
2021/03/31 10:38:17;;;;;;;;;;;18.40;39.50;;;;;;462215;257;1118;-45
2021/03/31 10:47:14;;;;;;;;;;;18.30;39.70;;;;;;462141;257;1131;-45
2021/03/31 10:49:27;;;;;;;;;;;18.40;39.60;;;;;;461891;257;2364;-45
2021/03/31 10:51:23;;;;;;;;;;;18.50;39.50;;;;;;461416;258;1441;-45
2021/03/31 10:53:20;;;;;;;;;;;18.40;39.50;;;;;;461975;257;2345;-45
2021/03/31 10:55:22;;;;;;;;;;;18.40;39.60;;;;;;462153;258;2219;-45
2021/03/31 10:57:23;;;;;;;;;;;18.40;39.70;;;;;;462159;257;1191;-45
2021/03/31 10:59:24;;;;;;;;;;;18.40;39.60;;;;;;462138;257;1951;-45
2021/03/31 11:01:26;;;;;;;;;;;18.40;39.60;;;;;;461909;257;1236;-45
2021/03/31 11:03:27;;;;;;;;;;;18.40;39.60;;;;;;462042;257;1293;-45
2021/03/31 11:05:28;;;;;;;;;;;18.40;39.60;;;;;;462226;257;1164;-45
2021/03/31 11:07:30;;;;;;;;;;;18.40;39.70;;;;;;462228;257;1271;-45
2021/03/31 11:09:31;;;;;;;;;;;18.30;39.60;;;;;;462169;257;1106;-45
2021/03/31 11:11:32;;;;;;;;;;;18.40;39.70;;;;;;462124;257;1375;-45
2021/03/31 11:13:34;;;;;;;;;;;18.40;39.60;;;;;;462136;257;1314;-45
2021/03/31 11:15:35;;;;;;;;;;;18.40;39.60;;;;;;462106;257;2168;-45
2021/03/31 11:17:42;;;;;;;;;;;18.30;39.60;;;;;;462081;257;1120;-45
2021/03/31 11:19:50;;;;;;;;;;;18.30;39.70;;;;;;461676;257;1515;-45
2021/03/31 11:26:29;;;;;;;;;;;18.40;39.70;;;;;;462268;258;1140;-45
2021/03/31 11:28:30;;;;;;;;;;;18.40;39.60;;;;;;462191;257;1330;-45
2021/03/31 11:30:32;;;;;;;;;;;18.30;39.70;;;;;;462290;257;1113;-45
2021/03/31 11:32:33;;;;;;;;;;;18.40;39.60;;;;;;462159;257;1325;-45
2021/03/31 11:34:34;;;;;;;;;;;18.30;39.60;;;;;;462137;257;1495;-45
2021/03/31 11:36:35;;;;;;;;;;;18.30;39.60;;;;;;462240;257;2190;-45
2021/03/31 11:38:37;;;;;;;;;;;18.30;39.60;;;;;;462674;257;1140;-45
2021/03/31 11:40:38;;;;;;;;;;;18.40;39.60;;;;;;462262;257;1168;-45
2021/03/31 11:42:39;;;;;;;;;;;18.30;39.70;;;;;;462320;257;1278;-45
2021/03/31 11:44:40;;;;;;;;;;;18.40;39.60;;;;;;462026;257;1437;-45
2021/03/31 11:46:42;;;;;;;;;;;18.40;39.60;;;;;;462089;257;1322;-45
2021/03/31 11:48:43;;;;;;;;;;;18.30;39.60;;;;;;462181;257;1247;-45
2021/03/31 11:50:44;;;;;;;;;;;18.40;39.50;;;;;;462154;257;1131;-45
2021/03/31 11:52:46;;;;;;;;;;;18.40;39.60;;;;;;462121;257;1137;-45
2021/03/31 11:54:47;;;;;;;;;;;18.30;39.60;;;;;;462167;257;1145;-45
2021/03/31 11:56:48;;;;;;;;;;;18.30;39.60;;;;;;461997;257;2207;-45
2021/03/31 11:58:49;;;;;;;;;;;18.30;39.60;;;;;;461904;257;1194;-45
2021/03/31 12:00:51;;;;;;;;;;;18.30;39.60;;;;;;461912;257;1259;-45
2021/03/31 12:02:52;;;;;;;;;;;18.30;39.70;;;;;;461846;257;1150;-44
2021/03/31 12:04:53;;;;;;;;;;;18.30;39.60;;;;;;462075;257;1442;-44
2021/03/31 12:06:54;;;;;;;;;;;18.30;39.60;;;;;;462272;257;1138;-45
2021/03/31 12:08:56;;;;;;;;;;;18.30;39.70;;;;;;462234;257;1213;-45
2021/03/31 12:10:57;;;;;;;;;;;18.30;39.60;;;;;;462434;257;1163;-45
2021/03/31 12:12:58;;;;;;;;;;;18.30;39.60;;;;;;462280;257;1096;-45
2021/03/31 12:15:00;;;;;;;;;;;18.30;39.60;;;;;;462167;257;1326;-44